Decoded Metar for LFLP (ANNECY in FRANCE) (IATA:NCY) | Meteo·Mobile Aviation Weather
aviador You're here:

LFLP Decoded Metar

ANNECY in FRANCE
Report Time2019-02-17 07:00:00
UTC Time2019-02-17 07:33:48
Flight Rules vfr VFR
WindVRB at 01 kt
Visibility9999 m
Phenomena:N/A
Clouds:N/A
Expected CloudBase > 800 ft AGL from Temp-Dew spread
CeilingNone
Temp-2°C (ISA -14)
Dew Point-4°C (86% RH)
AAT-4.9°C
QNH1028 hPa
Density Alt-633 ft
Elevation1,519 ft
Report Wrong Elevation
Raw Report
METAR LFLP 170700Z AUTO VRB01KT CAVOK M02/M04 Q1028 NOSIG=

Extra information for LFLP:More info

Metar Taf Metar & Taf Last 4 Metars F.Rules Stats Wind Profile Meteogram Temp Stats Airport Information Weather charts Add Link Nearby VenuesMetar ALERT Operation Metar Decoded Social comments